sensor_id;sensor_type;location;lat;lon;timestamp;P1;durP1;ratioP1;P2;durP2;ratioP2
56122;SDS011;42426;46.104;19.656;2023-04-01T00:00:21;11.57;;;7.47;;
56122;SDS011;42426;46.104;19.656;2023-04-01T00:02:47;10.35;;;7.18;;
56122;SDS011;42426;46.104;19.656;2023-04-01T00:05:13;10.10;;;7.10;;
56122;SDS011;42426;46.104;19.656;2023-04-01T00:07:39;10.35;;;6.93;;
56122;SDS011;42426;46.104;19.656;2023-04-01T00:10:06;13.30;;;7.63;;
56122;SDS011;42426;46.104;19.656;2023-04-01T00:12:33;9.30;;;6.78;;
56122;SDS011;42426;46.104;19.656;2023-04-01T00:14:59;8.40;;;5.90;;
56122;SDS011;42426;46.104;19.656;2023-04-01T00:17:25;12.07;;;6.68;;
56122;SDS011;42426;46.104;19.656;2023-04-01T00:19:52;7.00;;;5.60;;
56122;SDS011;42426;46.104;19.656;2023-04-01T00:22:20;12.52;;;7.43;;
56122;SDS011;42426;46.104;19.656;2023-04-01T00:24:46;10.25;;;6.22;;
56122;SDS011;42426;46.104;19.656;2023-04-01T00:27:12;12.40;;;6.38;;
56122;SDS011;42426;46.104;19.656;2023-04-01T00:29:37;8.45;;;5.85;;
56122;SDS011;42426;46.104;19.656;2023-04-01T00:32:06;9.40;;;6.07;;
56122;SDS011;42426;46.104;19.656;2023-04-01T00:34:32;9.20;;;6.10;;
56122;SDS011;42426;46.104;19.656;2023-04-01T00:36:57;10.35;;;6.45;;
56122;SDS011;42426;46.104;19.656;2023-04-01T00:39:23;9.50;;;5.88;;
56122;SDS011;42426;46.104;19.656;2023-04-01T00:41:50;9.00;;;5.65;;
56122;SDS011;42426;46.104;19.656;2023-04-01T00:44:18;11.27;;;6.18;;
56122;SDS011;42426;46.104;19.656;2023-04-01T00:46:48;6.60;;;5.03;;
56122;SDS011;42426;46.104;19.656;2023-04-01T00:49:15;6.32;;;4.88;;
56122;SDS011;42426;46.104;19.656;2023-04-01T00:51:43;5.93;;;4.60;;
56122;SDS011;42426;46.104;19.656;2023-04-01T00:54:13;7.65;;;4.00;;
56122;SDS011;42426;46.104;19.656;2023-04-01T00:56:51;6.57;;;4.70;;
56122;SDS011;42426;46.104;19.656;2023-04-01T00:59:37;5.53;;;3.90;;
56122;SDS011;42426;46.104;19.656;2023-04-01T01:02:18;7.20;;;4.65;;
56122;SDS011;42426;46.104;19.656;2023-04-01T01:04:44;6.88;;;4.22;;
56122;SDS011;42426;46.104;19.656;2023-04-01T01:18:21;5.20;;;3.80;;
56122;SDS011;42426;46.104;19.656;2023-04-01T01:21:12;4.95;;;3.53;;
56122;SDS011;42426;46.104;19.656;2023-04-01T01:24:03;5.03;;;3.13;;
56122;SDS011;42426;46.104;19.656;2023-04-01T01:35:14;3.45;;;3.08;;
56122;SDS011;42426;46.104;19.656;2023-04-01T01:37:55;4.68;;;3.10;;
56122;SDS011;42426;46.104;19.656;2023-04-01T01:40:27;4.45;;;2.67;;
56122;SDS011;42426;46.104;19.656;2023-04-01T01:42:57;6.40;;;3.53;;
56122;SDS011;42426;46.104;19.656;2023-04-01T01:45:27;4.30;;;2.72;;
56122;SDS011;42426;46.104;19.656;2023-04-01T01:47:55;3.42;;;2.80;;
56122;SDS011;42426;46.104;19.656;2023-04-01T01:50:23;3.30;;;2.78;;
56122;SDS011;42426;46.104;19.656;2023-04-01T01:52:51;4.38;;;3.22;;
56122;SDS011;42426;46.104;19.656;2023-04-01T01:57:59;8.35;;;4.78;;
56122;SDS011;42426;46.104;19.656;2023-04-01T02:00:30;6.60;;;4.57;;
56122;SDS011;42426;46.104;19.656;2023-04-01T02:02:57;6.15;;;4.53;;
56122;SDS011;42426;46.104;19.656;2023-04-01T02:05:24;5.93;;;4.00;;
56122;SDS011;42426;46.104;19.656;2023-04-01T02:07:57;5.03;;;3.75;;
56122;SDS011;42426;46.104;19.656;2023-04-01T02:10:34;6.80;;;4.28;;
56122;SDS011;42426;46.104;19.656;2023-04-01T02:13:04;7.70;;;4.18;;
56122;SDS011;42426;46.104;19.656;2023-04-01T02:15:36;5.97;;;4.38;;
56122;SDS011;42426;46.104;19.656;2023-04-01T02:18:06;9.38;;;4.47;;
56122;SDS011;42426;46.104;19.656;2023-04-01T02:20:32;6.78;;;4.90;;
56122;SDS011;42426;46.104;19.656;2023-04-01T02:23:00;5.55;;;3.90;;
56122;SDS011;42426;46.104;19.656;2023-04-01T02:25:27;5.68;;;4.63;;
56122;SDS011;42426;46.104;19.656;2023-04-01T02:27:56;7.38;;;4.97;;
56122;SDS011;42426;46.104;19.656;2023-04-01T02:30:24;5.30;;;4.28;;
56122;SDS011;42426;46.104;19.656;2023-04-01T02:32:52;7.47;;;5.28;;
56122;SDS011;42426;46.104;19.656;2023-04-01T02:35:20;7.55;;;5.05;;
56122;SDS011;42426;46.104;19.656;2023-04-01T02:37:46;6.47;;;4.88;;
56122;SDS011;42426;46.104;19.656;2023-04-01T02:40:16;7.20;;;5.10;;
56122;SDS011;42426;46.104;19.656;2023-04-01T02:42:42;8.75;;;5.43;;
56122;SDS011;42426;46.104;19.656;2023-04-01T02:45:08;10.90;;;4.75;;
56122;SDS011;42426;46.104;19.656;2023-04-01T02:47:36;8.13;;;5.13;;
56122;SDS011;42426;46.104;19.656;2023-04-01T02:50:01;8.80;;;5.35;;
56122;SDS011;42426;46.104;19.656;2023-04-01T02:52:28;11.90;;;7.03;;
56122;SDS011;42426;46.104;19.656;2023-04-01T02:54:55;7.47;;;5.07;;
56122;SDS011;42426;46.104;19.656;2023-04-01T02:57:22;9.52;;;5.25;;
56122;SDS011;42426;46.104;19.656;2023-04-01T02:59:48;8.65;;;4.88;;
56122;SDS011;42426;46.104;19.656;2023-04-01T03:02:13;5.53;;;4.10;;
56122;SDS011;42426;46.104;19.656;2023-04-01T03:04:40;7.03;;;5.40;;
56122;SDS011;42426;46.104;19.656;2023-04-01T03:07:05;5.93;;;4.13;;
56122;SDS011;42426;46.104;19.656;2023-04-01T03:09:31;6.70;;;5.07;;
56122;SDS011;42426;46.104;19.656;2023-04-01T03:11:57;6.95;;;5.00;;
56122;SDS011;42426;46.104;19.656;2023-04-01T03:14:23;9.38;;;5.90;;
56122;SDS011;42426;46.104;19.656;2023-04-01T03:16:48;8.20;;;4.72;;
56122;SDS011;42426;46.104;19.656;2023-04-01T03:19:14;10.35;;;6.38;;
56122;SDS011;42426;46.104;19.656;2023-04-01T03:21:40;9.23;;;5.22;;
56122;SDS011;42426;46.104;19.656;2023-04-01T03:24:06;8.35;;;5.85;;
56122;SDS011;42426;46.104;19.656;2023-04-01T03:26:32;6.35;;;4.93;;
56122;SDS011;42426;46.104;19.656;2023-04-01T03:28:58;7.75;;;5.43;;
56122;SDS011;42426;46.104;19.656;2023-04-01T03:31:24;7.68;;;6.43;;
56122;SDS011;42426;46.104;19.656;2023-04-01T03:33:50;7.90;;;5.45;;
56122;SDS011;42426;46.104;19.656;2023-04-01T03:36:16;7.25;;;5.60;;
56122;SDS011;42426;46.104;19.656;2023-04-01T03:38:43;9.95;;;6.35;;
56122;SDS011;42426;46.104;19.656;2023-04-01T03:41:13;6.00;;;5.03;;
56122;SDS011;42426;46.104;19.656;2023-04-01T03:43:43;6.88;;;4.90;;
56122;SDS011;42426;46.104;19.656;2023-04-01T03:46:10;8.38;;;5.22;;
56122;SDS011;42426;46.104;19.656;2023-04-01T03:48:35;7.50;;;4.53;;
56122;SDS011;42426;46.104;19.656;2023-04-01T03:51:01;8.23;;;5.70;;
56122;SDS011;42426;46.104;19.656;2023-04-01T03:53:32;10.43;;;5.63;;
56122;SDS011;42426;46.104;19.656;2023-04-01T03:55:57;7.40;;;5.22;;
56122;SDS011;42426;46.104;19.656;2023-04-01T03:58:23;7.25;;;4.75;;
56122;SDS011;42426;46.104;19.656;2023-04-01T04:00:49;6.18;;;4.60;;
56122;SDS011;42426;46.104;19.656;2023-04-01T04:03:14;8.45;;;4.40;;
56122;SDS011;42426;46.104;19.656;2023-04-01T04:05:47;7.60;;;4.57;;
56122;SDS011;42426;46.104;19.656;2023-04-01T04:08:13;6.70;;;4.20;;
56122;SDS011;42426;46.104;19.656;2023-04-01T04:10:39;6.63;;;4.70;;
56122;SDS011;42426;46.104;19.656;2023-04-01T04:13:04;7.45;;;5.35;;
56122;SDS011;42426;46.104;19.656;2023-04-01T04:15:32;7.47;;;4.35;;
56122;SDS011;42426;46.104;19.656;2023-04-01T04:17:58;6.35;;;3.78;;
56122;SDS011;42426;46.104;19.656;2023-04-01T04:20:29;8.18;;;4.25;;
56122;SDS011;42426;46.104;19.656;2023-04-01T04:22:54;5.20;;;3.63;;
56122;SDS011;42426;46.104;19.656;2023-04-01T04:25:20;8.60;;;4.68;;
56122;SDS011;42426;46.104;19.656;2023-04-01T04:27:46;11.15;;;6.50;;
56122;SDS011;42426;46.104;19.656;2023-04-01T04:30:11;8.35;;;5.43;;
56122;SDS011;42426;46.104;19.656;2023-04-01T04:32:37;8.27;;;4.68;;
56122;SDS011;42426;46.104;19.656;2023-04-01T04:35:04;7.05;;;4.95;;
56122;SDS011;42426;46.104;19.656;2023-04-01T04:37:31;7.95;;;5.15;;
56122;SDS011;42426;46.104;19.656;2023-04-01T04:39:59;6.38;;;4.22;;
56122;SDS011;42426;46.104;19.656;2023-04-01T04:42:24;5.70;;;4.53;;
56122;SDS011;42426;46.104;19.656;2023-04-01T04:44:50;5.18;;;3.67;;
56122;SDS011;42426;46.104;19.656;2023-04-01T04:47:16;6.72;;;4.25;;
56122;SDS011;42426;46.104;19.656;2023-04-01T04:49:41;5.72;;;4.45;;
56122;SDS011;42426;46.104;19.656;2023-04-01T04:52:07;9.82;;;5.55;;
56122;SDS011;42426;46.104;19.656;2023-04-01T04:54:33;7.63;;;5.63;;
56122;SDS011;42426;46.104;19.656;2023-04-01T04:56:58;10.27;;;6.75;;
56122;SDS011;42426;46.104;19.656;2023-04-01T04:59:24;11.07;;;6.90;;
56122;SDS011;42426;46.104;19.656;2023-04-01T05:01:51;11.65;;;6.97;;
56122;SDS011;42426;46.104;19.656;2023-04-01T05:04:16;8.30;;;5.60;;
56122;SDS011;42426;46.104;19.656;2023-04-01T05:06:43;7.35;;;4.50;;
56122;SDS011;42426;46.104;19.656;2023-04-01T05:09:10;6.15;;;4.65;;
56122;SDS011;42426;46.104;19.656;2023-04-01T05:11:35;8.82;;;5.40;;
56122;SDS011;42426;46.104;19.656;2023-04-01T05:14:01;8.32;;;5.72;;
56122;SDS011;42426;46.104;19.656;2023-04-01T05:16:28;7.88;;;5.00;;
56122;SDS011;42426;46.104;19.656;2023-04-01T05:18:54;8.30;;;5.22;;
56122;SDS011;42426;46.104;19.656;2023-04-01T05:21:20;7.22;;;5.13;;
56122;SDS011;42426;46.104;19.656;2023-04-01T05:23:46;8.38;;;6.55;;
56122;SDS011;42426;46.104;19.656;2023-04-01T05:26:12;6.75;;;5.13;;
56122;SDS011;42426;46.104;19.656;2023-04-01T05:28:39;8.60;;;5.50;;
56122;SDS011;42426;46.104;19.656;2023-04-01T05:31:05;8.88;;;5.97;;
56122;SDS011;42426;46.104;19.656;2023-04-01T05:33:31;9.75;;;5.30;;
56122;SDS011;42426;46.104;19.656;2023-04-01T05:36:05;7.72;;;5.00;;
56122;SDS011;42426;46.104;19.656;2023-04-01T05:38:34;7.93;;;5.35;;
56122;SDS011;42426;46.104;19.656;2023-04-01T05:41:01;6.85;;;5.22;;
56122;SDS011;42426;46.104;19.656;2023-04-01T05:43:27;7.82;;;5.13;;
56122;SDS011;42426;46.104;19.656;2023-04-01T05:45:53;8.27;;;4.75;;
56122;SDS011;42426;46.104;19.656;2023-04-01T05:48:18;5.70;;;4.85;;
56122;SDS011;42426;46.104;19.656;2023-04-01T05:50:44;6.53;;;4.70;;
56122;SDS011;42426;46.104;19.656;2023-04-01T05:53:10;7.90;;;5.60;;
56122;SDS011;42426;46.104;19.656;2023-04-01T05:55:36;6.03;;;5.28;;
56122;SDS011;42426;46.104;19.656;2023-04-01T05:58:01;7.97;;;5.75;;
56122;SDS011;42426;46.104;19.656;2023-04-01T06:00:27;7.30;;;5.82;;
56122;SDS011;42426;46.104;19.656;2023-04-01T06:02:53;8.90;;;6.78;;
56122;SDS011;42426;46.104;19.656;2023-04-01T06:05:22;16.52;;;12.30;;
56122;SDS011;42426;46.104;19.656;2023-04-01T06:07:51;11.25;;;8.32;;
56122;SDS011;42426;46.104;19.656;2023-04-01T06:10:31;12.05;;;8.55;;
56122;SDS011;42426;46.104;19.656;2023-04-01T06:13:28;14.25;;;10.10;;
56122;SDS011;42426;46.104;19.656;2023-04-01T06:16:26;13.13;;;9.52;;
56122;SDS011;42426;46.104;19.656;2023-04-01T06:22:32;21.42;;;14.45;;
56122;SDS011;42426;46.104;19.656;2023-04-01T06:25:24;34.05;;;24.00;;
56122;SDS011;42426;46.104;19.656;2023-04-01T06:31:10;27.73;;;20.30;;
56122;SDS011;42426;46.104;19.656;2023-04-01T06:34:01;17.85;;;13.27;;
56122;SDS011;42426;46.104;19.656;2023-04-01T06:36:52;20.55;;;13.13;;
56122;SDS011;42426;46.104;19.656;2023-04-01T06:45:00;15.35;;;9.85;;
56122;SDS011;42426;46.104;19.656;2023-04-01T06:50:30;16.58;;;11.15;;
56122;SDS011;42426;46.104;19.656;2023-04-01T06:53:10;14.10;;;9.93;;
56122;SDS011;42426;46.104;19.656;2023-04-01T06:56:00;17.38;;;9.77;;
56122;SDS011;42426;46.104;19.656;2023-04-01T06:59:15;16.30;;;11.23;;
56122;SDS011;42426;46.104;19.656;2023-04-01T07:01:32;16.08;;;11.73;;
56122;SDS011;42426;46.104;19.656;2023-04-01T07:04:11;14.93;;;10.27;;
56122;SDS011;42426;46.104;19.656;2023-04-01T07:06:52;13.82;;;10.60;;
56122;SDS011;42426;46.104;19.656;2023-04-01T07:09:25;14.32;;;9.75;;
56122;SDS011;42426;46.104;19.656;2023-04-01T07:11:56;15.98;;;9.65;;
56122;SDS011;42426;46.104;19.656;2023-04-01T07:14:32;13.95;;;10.23;;
56122;SDS011;42426;46.104;19.656;2023-04-01T07:17:12;14.18;;;10.00;;
56122;SDS011;42426;46.104;19.656;2023-04-01T07:19:52;13.70;;;9.77;;
56122;SDS011;42426;46.104;19.656;2023-04-01T07:22:31;15.65;;;9.05;;
56122;SDS011;42426;46.104;19.656;2023-04-01T07:27:51;13.93;;;9.05;;
56122;SDS011;42426;46.104;19.656;2023-04-01T07:30:21;13.55;;;8.23;;
56122;SDS011;42426;46.104;19.656;2023-04-01T07:32:54;14.13;;;8.90;;
56122;SDS011;42426;46.104;19.656;2023-04-01T07:35:24;21.48;;;10.38;;
56122;SDS011;42426;46.104;19.656;2023-04-01T07:46:52;21.10;;;12.52;;
56122;SDS011;42426;46.104;19.656;2023-04-01T07:52:33;18.27;;;10.98;;
56122;SDS011;42426;46.104;19.656;2023-04-01T07:55:12;17.77;;;13.00;;
56122;SDS011;42426;46.104;19.656;2023-04-01T08:00:42;17.27;;;11.38;;
56122;SDS011;42426;46.104;19.656;2023-04-01T08:03:19;12.38;;;9.13;;
56122;SDS011;42426;46.104;19.656;2023-04-01T08:06:00;16.10;;;11.93;;
56122;SDS011;42426;46.104;19.656;2023-04-01T08:08:48;17.70;;;12.75;;
56122;SDS011;42426;46.104;19.656;2023-04-01T08:22:52;22.38;;;13.02;;
56122;SDS011;42426;46.104;19.656;2023-04-01T08:25:22;20.05;;;12.02;;
56122;SDS011;42426;46.104;19.656;2023-04-01T08:27:53;16.85;;;11.80;;
56122;SDS011;42426;46.104;19.656;2023-04-01T08:33:27;16.35;;;12.68;;
56122;SDS011;42426;46.104;19.656;2023-04-01T08:38:49;18.52;;;11.00;;
56122;SDS011;42426;46.104;19.656;2023-04-01T09:01:04;12.13;;;8.65;;
56122;SDS011;42426;46.104;19.656;2023-04-01T09:06:33;12.82;;;8.57;;
56122;SDS011;42426;46.104;19.656;2023-04-01T09:09:30;12.43;;;9.43;;
56122;SDS011;42426;46.104;19.656;2023-04-01T09:42:29;15.98;;;12.32;;
56122;SDS011;42426;46.104;19.656;2023-04-01T09:50:29;14.43;;;9.18;;
56122;SDS011;42426;46.104;19.656;2023-04-01T09:56:12;10.57;;;7.47;;
56122;SDS011;42426;46.104;19.656;2023-04-01T10:14:51;8.65;;;5.47;;
56122;SDS011;42426;46.104;19.656;2023-04-01T10:25:11;7.50;;;5.45;;
56122;SDS011;42426;46.104;19.656;2023-04-01T10:46:11;13.05;;;7.65;;
56122;SDS011;42426;46.104;19.656;2023-04-01T10:57:01;15.60;;;8.23;;
56122;SDS011;42426;46.104;19.656;2023-04-01T11:09:33;11.07;;;6.53;;
56122;SDS011;42426;46.104;19.656;2023-04-01T11:20:10;11.82;;;7.65;;
56122;SDS011;42426;46.104;19.656;2023-04-01T11:33:00;9.15;;;5.35;;
56122;SDS011;42426;46.104;19.656;2023-04-01T11:53:14;12.90;;;7.65;;
56122;SDS011;42426;46.104;19.656;2023-04-01T12:11:19;11.50;;;5.43;;
56122;SDS011;42426;46.104;19.656;2023-04-01T12:13:53;8.85;;;5.53;;
56122;SDS011;42426;46.104;19.656;2023-04-01T12:18:53;13.43;;;7.90;;
56122;SDS011;42426;46.104;19.656;2023-04-01T12:21:28;9.10;;;5.60;;
56122;SDS011;42426;46.104;19.656;2023-04-01T12:24:16;7.45;;;5.10;;
56122;SDS011;42426;46.104;19.656;2023-04-01T12:39:02;10.05;;;5.97;;
56122;SDS011;42426;46.104;19.656;2023-04-01T12:43:25;12.05;;;5.28;;
56122;SDS011;42426;46.104;19.656;2023-04-01T13:16:10;8.25;;;5.22;;
56122;SDS011;42426;46.104;19.656;2023-04-01T13:23:05;4.40;;;3.42;;
56122;SDS011;42426;46.104;19.656;2023-04-01T13:25:42;7.95;;;4.25;;
56122;SDS011;42426;46.104;19.656;2023-04-01T13:28:28;10.35;;;6.93;;
56122;SDS011;42426;46.104;19.656;2023-04-01T13:30:59;12.02;;;6.25;;
56122;SDS011;42426;46.104;19.656;2023-04-01T13:36:16;12.93;;;7.25;;
56122;SDS011;42426;46.104;19.656;2023-04-01T13:56:57;17.00;;;9.43;;
56122;SDS011;42426;46.104;19.656;2023-04-01T13:59:50;14.70;;;7.32;;
56122;SDS011;42426;46.104;19.656;2023-04-01T14:02:33;16.50;;;8.43;;
56122;SDS011;42426;46.104;19.656;2023-04-01T14:12:46;10.55;;;6.85;;
56122;SDS011;42426;46.104;19.656;2023-04-01T14:15:32;10.07;;;6.40;;
56122;SDS011;42426;46.104;19.656;2023-04-01T14:26:07;9.02;;;4.68;;
56122;SDS011;42426;46.104;19.656;2023-04-01T14:31:20;7.80;;;4.93;;
56122;SDS011;42426;46.104;19.656;2023-04-01T14:36:41;11.70;;;6.60;;
56122;SDS011;42426;46.104;19.656;2023-04-01T14:39:15;12.02;;;6.68;;
56122;SDS011;42426;46.104;19.656;2023-04-01T14:44:38;17.45;;;14.00;;
56122;SDS011;42426;46.104;19.656;2023-04-01T14:50:05;13.73;;;8.75;;
56122;SDS011;42426;46.104;19.656;2023-04-01T14:52:32;12.70;;;6.88;;
56122;SDS011;42426;46.104;19.656;2023-04-01T14:54:59;12.65;;;7.80;;
56122;SDS011;42426;46.104;19.656;2023-04-01T14:57:30;13.30;;;7.45;;
56122;SDS011;42426;46.104;19.656;2023-04-01T15:05:14;13.50;;;6.18;;
56122;SDS011;42426;46.104;19.656;2023-04-01T15:13:11;9.38;;;5.82;;
56122;SDS011;42426;46.104;19.656;2023-04-01T15:15:59;13.48;;;7.18;;
56122;SDS011;42426;46.104;19.656;2023-04-01T15:18:40;12.13;;;6.25;;
56122;SDS011;42426;46.104;19.656;2023-04-01T15:31:39;15.05;;;8.15;;
56122;SDS011;42426;46.104;19.656;2023-04-01T15:36:49;19.17;;;11.20;;
56122;SDS011;42426;46.104;19.656;2023-04-01T15:39:41;25.95;;;12.95;;
56122;SDS011;42426;46.104;19.656;2023-04-01T15:42:51;16.58;;;9.35;;
56122;SDS011;42426;46.104;19.656;2023-04-01T15:47:40;9.88;;;6.63;;
56122;SDS011;42426;46.104;19.656;2023-04-01T15:52:43;12.60;;;7.20;;
56122;SDS011;42426;46.104;19.656;2023-04-01T16:03:15;17.30;;;9.82;;
56122;SDS011;42426;46.104;19.656;2023-04-01T16:05:49;16.13;;;10.10;;
56122;SDS011;42426;46.104;19.656;2023-04-01T16:24:04;28.55;;;16.38;;
56122;SDS011;42426;46.104;19.656;2023-04-01T16:26:34;25.40;;;14.80;;
56122;SDS011;42426;46.104;19.656;2023-04-01T16:34:18;15.60;;;10.68;;
56122;SDS011;42426;46.104;19.656;2023-04-01T16:36:47;22.25;;;12.73;;
56122;SDS011;42426;46.104;19.656;2023-04-01T16:39:18;22.75;;;15.05;;
56122;SDS011;42426;46.104;19.656;2023-04-01T16:44:22;31.30;;;16.00;;
56122;SDS011;42426;46.104;19.656;2023-04-01T16:46:52;20.08;;;13.63;;
56122;SDS011;42426;46.104;19.656;2023-04-01T16:49:32;23.10;;;14.15;;
56122;SDS011;42426;46.104;19.656;2023-04-01T16:57:21;28.20;;;15.65;;
56122;SDS011;42426;46.104;19.656;2023-04-01T17:02:47;25.48;;;12.80;;
56122;SDS011;42426;46.104;19.656;2023-04-01T17:05:16;24.02;;;13.38;;
56122;SDS011;42426;46.104;19.656;2023-04-01T17:15:46;19.63;;;12.55;;
56122;SDS011;42426;46.104;19.656;2023-04-01T17:20:48;19.17;;;10.93;;
56122;SDS011;42426;46.104;19.656;2023-04-01T17:23:20;14.27;;;9.07;;
56122;SDS011;42426;46.104;19.656;2023-04-01T17:38:40;14.05;;;7.70;;
56122;SDS011;42426;46.104;19.656;2023-04-01T17:49:17;14.43;;;8.38;;
56122;SDS011;42426;46.104;19.656;2023-04-01T17:59:49;20.38;;;11.55;;
56122;SDS011;42426;46.104;19.656;2023-04-01T18:10:08;20.50;;;12.60;;
56122;SDS011;42426;46.104;19.656;2023-04-01T18:12:51;22.15;;;10.55;;
56122;SDS011;42426;46.104;19.656;2023-04-01T18:20:33;14.27;;;8.30;;
56122;SDS011;42426;46.104;19.656;2023-04-01T18:23:06;15.45;;;10.00;;
56122;SDS011;42426;46.104;19.656;2023-04-01T18:25:39;17.85;;;11.88;;
56122;SDS011;42426;46.104;19.656;2023-04-01T18:30:54;23.65;;;13.02;;
56122;SDS011;42426;46.104;19.656;2023-04-01T18:45:23;26.05;;;16.88;;
56122;SDS011;42426;46.104;19.656;2023-04-01T18:51:13;19.80;;;12.02;;
56122;SDS011;42426;46.104;19.656;2023-04-01T18:53:58;19.08;;;11.23;;
56122;SDS011;42426;46.104;19.656;2023-04-01T18:56:35;29.08;;;12.93;;
56122;SDS011;42426;46.104;19.656;2023-04-01T18:59:10;14.88;;;7.95;;
56122;SDS011;42426;46.104;19.656;2023-04-01T19:01:43;15.93;;;9.93;;
56122;SDS011;42426;46.104;19.656;2023-04-01T19:06:48;19.48;;;10.98;;
56122;SDS011;42426;46.104;19.656;2023-04-01T19:09:17;15.90;;;8.98;;
56122;SDS011;42426;46.104;19.656;2023-04-01T19:11:46;14.63;;;8.10;;
56122;SDS011;42426;46.104;19.656;2023-04-01T19:14:19;17.38;;;8.52;;
56122;SDS011;42426;46.104;19.656;2023-04-01T19:19:39;12.70;;;7.15;;
56122;SDS011;42426;46.104;19.656;2023-04-01T19:35:32;17.00;;;8.65;;
56122;SDS011;42426;46.104;19.656;2023-04-01T19:40:55;21.25;;;10.13;;
56122;SDS011;42426;46.104;19.656;2023-04-01T19:49:19;12.35;;;6.78;;
56122;SDS011;42426;46.104;19.656;2023-04-01T19:55:14;13.05;;;8.10;;
56122;SDS011;42426;46.104;19.656;2023-04-01T20:00:40;11.68;;;7.35;;
56122;SDS011;42426;46.104;19.656;2023-04-01T20:08:17;9.65;;;6.68;;
56122;SDS011;42426;46.104;19.656;2023-04-01T20:16:00;16.67;;;8.75;;
56122;SDS011;42426;46.104;19.656;2023-04-01T20:22:00;12.50;;;7.55;;
56122;SDS011;42426;46.104;19.656;2023-04-01T20:26:25;10.57;;;6.22;;
56122;SDS011;42426;46.104;19.656;2023-04-01T20:31:31;11.45;;;5.93;;
56122;SDS011;42426;46.104;19.656;2023-04-01T20:34:15;11.25;;;6.28;;
56122;SDS011;42426;46.104;19.656;2023-04-01T20:44:24;15.95;;;10.00;;
56122;SDS011;42426;46.104;19.656;2023-04-01T20:49:33;19.40;;;11.00;;
56122;SDS011;42426;46.104;19.656;2023-04-01T20:57:09;15.60;;;8.52;;
56122;SDS011;42426;46.104;19.656;2023-04-01T20:59:52;16.60;;;9.45;;
56122;SDS011;42426;46.104;19.656;2023-04-01T21:11:01;18.45;;;9.32;;
56122;SDS011;42426;46.104;19.656;2023-04-01T21:17:00;15.73;;;8.25;;
56122;SDS011;42426;46.104;19.656;2023-04-01T21:22:22;13.13;;;9.20;;
56122;SDS011;42426;46.104;19.656;2023-04-01T21:33:18;12.13;;;7.75;;
56122;SDS011;42426;46.104;19.656;2023-04-01T22:11:13;9.35;;;6.78;;
56122;SDS011;42426;46.104;19.656;2023-04-01T22:13:48;10.40;;;6.60;;
56122;SDS011;42426;46.104;19.656;2023-04-01T22:16:31;11.27;;;6.25;;
56122;SDS011;42426;46.104;19.656;2023-04-01T22:21:50;10.48;;;6.45;;
56122;SDS011;42426;46.104;19.656;2023-04-01T22:27:04;7.72;;;5.22;;
56122;SDS011;42426;46.104;19.656;2023-04-01T22:50:10;7.18;;;4.53;;
56122;SDS011;42426;46.104;19.656;2023-04-01T22:52:40;8.77;;;5.13;;
56122;SDS011;42426;46.104;19.656;2023-04-01T22:55:21;6.57;;;4.90;;
56122;SDS011;42426;46.104;19.656;2023-04-01T22:57:50;9.05;;;5.30;;
56122;SDS011;42426;46.104;19.656;2023-04-01T23:00:21;10.77;;;6.72;;
56122;SDS011;42426;46.104;19.656;2023-04-01T23:05:40;13.50;;;7.70;;
56122;SDS011;42426;46.104;19.656;2023-04-01T23:11:04;13.18;;;7.82;;
56122;SDS011;42426;46.104;19.656;2023-04-01T23:13:32;12.93;;;8.02;;
56122;SDS011;42426;46.104;19.656;2023-04-01T23:16:02;10.95;;;5.88;;
56122;SDS011;42426;46.104;19.656;2023-04-01T23:21:05;8.93;;;5.10;;
56122;SDS011;42426;46.104;19.656;2023-04-01T23:23:45;9.15;;;6.00;;
56122;SDS011;42426;46.104;19.656;2023-04-01T23:26:20;10.55;;;6.18;;
56122;SDS011;42426;46.104;19.656;2023-04-01T23:28:50;8.65;;;5.03;;
56122;SDS011;42426;46.104;19.656;2023-04-01T23:31:31;7.60;;;4.90;;
56122;SDS011;42426;46.104;19.656;2023-04-01T23:33:58;10.63;;;6.18;;
56122;SDS011;42426;46.104;19.656;2023-04-01T23:36:25;8.88;;;5.85;;
56122;SDS011;42426;46.104;19.656;2023-04-01T23:38:52;8.80;;;5.55;;
56122;SDS011;42426;46.104;19.656;2023-04-01T23:41:25;9.95;;;5.53;;
56122;SDS011;42426;46.104;19.656;2023-04-01T23:46:26;10.38;;;6.80;;
56122;SDS011;42426;46.104;19.656;2023-04-01T23:48:52;9.60;;;5.72;;
56122;SDS011;42426;46.104;19.656;2023-04-01T23:51:21;8.15;;;5.45;;
56122;SDS011;42426;46.104;19.656;2023-04-01T23:53:48;10.00;;;6.28;;
56122;SDS011;42426;46.104;19.656;2023-04-01T23:56:23;9.80;;;5.82;;
56122;SDS011;42426;46.104;19.656;2023-04-01T23:58:57;8.40;;;5.05;;
